Thurso, Canada
Current Conditions -  °F | °C
As of 12:00 AM on Friday 31 Oct 2014 (Local Time) from CYOW Reporting Station
Scattered Clouds Scattered Clouds  
Wind Chill: 32°   Ceiling: Unl
Heat Index: 32°   Visibility: 15mi
Dew Point: 25°   Wind: 3mph
Humidity: 75%   Direction: 320°NW
Pressure: 30.03"   Gusts: NA
Location:  45.58°N, 75.23°W
Report Text: CYOW 310400Z 32003KT 15SM SCT230 00/M04 A3003 RMK CI4 SLP173
Loading
Personal Weather Stations






























Interactive Weather Map
Tropical Storm Tracking
New forecast layout! Learn more

10-Day Weather Forecast

Advertisements
Track Severe Weather on mobile